ASL30R EDDF-LYBE
Flight info
| Callsign | ASL30R |
|---|---|
| Flight time | 1h 31m |
| Altitude | 31000 |
| Route | CINDY3F CINDY Z74 HAREM DCT ASLEP DCT TAKUT DCT DINKU L603 BESNI/N0439F370 L605 MIQ DCT ALUTU DCT BIBAG L605 ESEGA/N0438F350 DCT VELOM DCT GOTAR DCT BABIT DCT RIGMU |
| Aircraft | A320/M-SDE3FGHIRWY/LB1 |
Departure
| Time | 2026-04-16 07:50 |
|---|---|
| Airport | Frankfurt Main Airport (EDDF) |
Arrival
| Time | 2026-04-16 09:21 |
|---|---|
| Airport | Belgrade Nikola Tesla Airport (LYBE) |
| Time | Latitude | Longitude | Altitude | Speed | Heading |
|---|---|---|---|---|---|
| 2026-04-16 07:27 | 50.04955 | 8.59079 | 363 ft | 0 kts | 160° |
| 2026-04-16 07:42 | 50.04958 | 8.59077 | 362 ft | 3 kts | 160° |
| 2026-04-16 07:43 | 50.04984 | 8.59064 | 363 ft | 4 kts | 165° |
| 2026-04-16 07:43 | 50.05010 | 8.59055 | 363 ft | 4 kts | 175° |
| 2026-04-16 07:43 | 50.05036 | 8.59058 | 362 ft | 4 kts | 208° |
| 2026-04-16 07:43 | 50.05047 | 8.59074 | 366 ft | 1 kts | 249° |
| 2026-04-16 07:44 | 50.05048 | 8.59078 | 366 ft | 0 kts | 249° |
| 2026-04-16 07:45 | 50.05042 | 8.59052 | 362 ft | 10 kts | 249° |
| 2026-04-16 07:46 | 50.05013 | 8.58934 | 362 ft | 13 kts | 249° |
| 2026-04-16 07:46 | 50.04979 | 8.58789 | 361 ft | 16 kts | 251° |
| 2026-04-16 07:46 | 50.04905 | 8.58680 | 361 ft | 16 kts | 174° |
| 2026-04-16 07:46 | 50.04800 | 8.58734 | 369 ft | 16 kts | 159° |
| 2026-04-16 07:47 | 50.04700 | 8.58767 | 369 ft | 15 kts | 184° |
| 2026-04-16 07:47 | 50.04613 | 8.58746 | 370 ft | 0 kts | 193° |
| 2026-04-16 07:48 | 50.04612 | 8.58746 | 370 ft | 1 kts | 193° |
| 2026-04-16 07:48 | 50.04571 | 8.58700 | 371 ft | 13 kts | 219° |
| 2026-04-16 07:48 | 50.04496 | 8.58596 | 370 ft | 16 kts | 232° |
| 2026-04-16 07:49 | 50.04447 | 8.58421 | 370 ft | 24 kts | 250° |
| 2026-04-16 07:49 | 50.04301 | 8.57819 | 367 ft | 93 kts | 250° |
| 2026-04-16 07:49 | 50.04016 | 8.56622 | 358 ft | 143 kts | 250° |
| 2026-04-16 07:49 | 50.03648 | 8.55034 | 673 ft | 157 kts | 248° |
| 2026-04-16 07:50 | 50.03281 | 8.53442 | 1355 ft | 156 kts | 250° |
| 2026-04-16 07:50 | 50.02892 | 8.51831 | 1834 ft | 167 kts | 250° |
| 2026-04-16 07:50 | 50.02382 | 8.50091 | 2093 ft | 190 kts | 231° |
| 2026-04-16 07:50 | 50.01226 | 8.48895 | 2359 ft | 215 kts | 200° |
| 2026-04-16 07:51 | 49.99654 | 8.48884 | 2633 ft | 245 kts | 161° |
| 2026-04-16 07:51 | 49.98266 | 8.50501 | 3141 ft | 265 kts | 129° |
| 2026-04-16 07:51 | 49.97241 | 8.52914 | 3979 ft | 270 kts | 119° |
| 2026-04-16 07:51 | 49.96379 | 8.55520 | 4922 ft | 273 kts | 116° |
| 2026-04-16 07:52 | 49.95556 | 8.58203 | 5782 ft | 277 kts | 116° |
| 2026-04-16 07:52 | 49.94719 | 8.60916 | 6637 ft | 281 kts | 116° |
| 2026-04-16 07:52 | 49.93846 | 8.63653 | 7427 ft | 285 kts | 117° |
| 2026-04-16 07:52 | 49.92935 | 8.66412 | 8238 ft | 289 kts | 117° |
| 2026-04-16 07:53 | 49.91996 | 8.69189 | 9034 ft | 293 kts | 117° |
| 2026-04-16 07:53 | 49.91044 | 8.71965 | 9834 ft | 297 kts | 118° |
| 2026-04-16 07:53 | 49.90064 | 8.74799 | 10515 ft | 304 kts | 118° |
| 2026-04-16 07:53 | 49.89023 | 8.77798 | 10733 ft | 327 kts | 118° |
| 2026-04-16 07:54 | 49.87918 | 8.80969 | 11185 ft | 339 kts | 118° |
| 2026-04-16 07:54 | 49.86787 | 8.84205 | 11824 ft | 344 kts | 118° |
| 2026-04-16 07:54 | 49.85643 | 8.87477 | 12483 ft | 348 kts | 119° |
| 2026-04-16 07:54 | 49.84481 | 8.90803 | 13152 ft | 353 kts | 119° |
| 2026-04-16 07:55 | 49.83307 | 8.94164 | 13807 ft | 358 kts | 119° |
| 2026-04-16 07:55 | 49.82115 | 8.97574 | 14424 ft | 362 kts | 119° |
| 2026-04-16 07:55 | 49.80932 | 9.00959 | 15001 ft | 366 kts | 119° |
| 2026-04-16 07:55 | 49.79713 | 9.04443 | 15583 ft | 370 kts | 119° |
| 2026-04-16 07:56 | 49.78481 | 9.07959 | 16176 ft | 373 kts | 119° |
| 2026-04-16 07:56 | 49.77235 | 9.11501 | 16785 ft | 376 kts | 119° |
| 2026-04-16 07:56 | 49.75981 | 9.15061 | 17363 ft | 380 kts | 119° |
| 2026-04-16 07:56 | 49.74642 | 9.18601 | 17914 ft | 384 kts | 126° |
| 2026-04-16 07:57 | 49.72959 | 9.21825 | 18500 ft | 387 kts | 132° |
| 2026-04-16 07:57 | 49.71176 | 9.24969 | 19012 ft | 391 kts | 132° |
| 2026-04-16 07:57 | 49.69403 | 9.28088 | 19531 ft | 394 kts | 133° |
| 2026-04-16 07:57 | 49.67585 | 9.31285 | 20063 ft | 398 kts | 133° |
| 2026-04-16 07:58 | 49.65753 | 9.34507 | 20596 ft | 401 kts | 133° |
| 2026-04-16 07:58 | 49.63905 | 9.37769 | 21108 ft | 405 kts | 131° |
| 2026-04-16 07:58 | 49.62255 | 9.41322 | 21594 ft | 410 kts | 121° |
| 2026-04-16 07:58 | 49.61016 | 9.45303 | 22071 ft | 415 kts | 110° |
| 2026-04-16 07:59 | 49.60103 | 9.49546 | 22569 ft | 418 kts | 108° |
| 2026-04-16 07:59 | 49.59209 | 9.53768 | 23072 ft | 422 kts | 108° |
| 2026-04-16 07:59 | 49.58288 | 9.58062 | 23564 ft | 425 kts | 109° |
| 2026-04-16 07:59 | 49.57349 | 9.62400 | 24015 ft | 429 kts | 109° |
| 2026-04-16 08:00 | 49.56398 | 9.66772 | 24410 ft | 432 kts | 109° |
| 2026-04-16 08:00 | 49.55440 | 9.71174 | 24825 ft | 435 kts | 109° |
| 2026-04-16 08:00 | 49.54477 | 9.75601 | 25234 ft | 438 kts | 109° |
| 2026-04-16 08:00 | 49.53471 | 9.80036 | 25618 ft | 440 kts | 113° |
| 2026-04-16 08:01 | 49.52102 | 9.84246 | 26027 ft | 441 kts | 123° |
| 2026-04-16 08:01 | 49.50321 | 9.88077 | 26432 ft | 441 kts | 131° |
| 2026-04-16 08:01 | 49.48412 | 9.91676 | 26820 ft | 443 kts | 131° |
| 2026-04-16 08:01 | 49.46461 | 9.95350 | 27224 ft | 445 kts | 131° |
| 2026-04-16 08:02 | 49.44500 | 9.99044 | 27599 ft | 447 kts | 131° |
| 2026-04-16 08:02 | 49.40562 | 10.06489 | 28330 ft | 452 kts | 131° |
| 2026-04-16 08:02 | 49.38575 | 10.10246 | 28695 ft | 454 kts | 132° |
| 2026-04-16 08:03 | 49.36578 | 10.14014 | 29048 ft | 456 kts | 132° |
| 2026-04-16 08:03 | 49.34568 | 10.17799 | 29405 ft | 459 kts | 132° |
| 2026-04-16 08:03 | 49.32580 | 10.21534 | 29753 ft | 461 kts | 132° |
| 2026-04-16 08:03 | 49.30546 | 10.25349 | 30107 ft | 463 kts | 132° |
| 2026-04-16 08:04 | 49.28493 | 10.29189 | 30288 ft | 469 kts | 132° |
| 2026-04-16 08:04 | 49.26416 | 10.33062 | 30548 ft | 472 kts | 132° |
| 2026-04-16 08:04 | 49.24340 | 10.36934 | 30928 ft | 471 kts | 133° |
| 2026-04-16 08:04 | 49.22107 | 10.40573 | 31208 ft | 469 kts | 139° |
| 2026-04-16 08:05 | 49.17595 | 10.47313 | 31274 ft | 461 kts | 139° |
| 2026-04-16 08:05 | 49.13030 | 10.54045 | 31288 ft | 459 kts | 139° |
| 2026-04-16 08:06 | 49.08441 | 10.60832 | 31285 ft | 459 kts | 139° |
| 2026-04-16 08:06 | 49.03864 | 10.67596 | 31284 ft | 459 kts | 139° |
| 2026-04-16 08:07 | 48.99282 | 10.74352 | 31281 ft | 458 kts | 139° |
| 2026-04-16 08:07 | 48.94737 | 10.81018 | 31278 ft | 458 kts | 139° |
| 2026-04-16 08:08 | 48.90147 | 10.87732 | 31277 ft | 458 kts | 139° |
| 2026-04-16 08:08 | 48.85572 | 10.94424 | 31259 ft | 457 kts | 139° |
| 2026-04-16 08:10 | 48.67175 | 11.21195 | 31259 ft | 458 kts | 135° |
| 2026-04-16 08:11 | 48.63646 | 11.29232 | 31256 ft | 463 kts | 115° |
| 2026-04-16 08:11 | 48.61566 | 11.38451 | 31253 ft | 464 kts | 109° |
| 2026-04-16 08:12 | 48.59607 | 11.47688 | 31245 ft | 465 kts | 109° |
| 2026-04-16 08:12 | 48.57618 | 11.56961 | 31248 ft | 465 kts | 109° |
| 2026-04-16 08:13 | 48.56044 | 11.66449 | 31254 ft | 466 kts | 103° |
| 2026-04-16 08:13 | 48.54671 | 11.76000 | 31248 ft | 467 kts | 103° |
| 2026-04-16 08:14 | 48.53285 | 11.85489 | 31256 ft | 466 kts | 103° |
| 2026-04-16 08:14 | 48.51876 | 11.95024 | 31266 ft | 466 kts | 103° |
| 2026-04-16 08:15 | 48.50459 | 12.04565 | 31276 ft | 466 kts | 104° |
| 2026-04-16 08:15 | 48.49040 | 12.14086 | 31273 ft | 466 kts | 104° |
| 2026-04-16 08:16 | 48.47608 | 12.23614 | 31272 ft | 466 kts | 104° |
| 2026-04-16 08:16 | 48.46170 | 12.33060 | 31275 ft | 465 kts | 104° |
| 2026-04-16 08:17 | 48.44721 | 12.42551 | 31270 ft | 465 kts | 104° |
| 2026-04-16 08:17 | 48.43268 | 12.52015 | 31266 ft | 465 kts | 104° |
| 2026-04-16 08:19 | 48.36388 | 12.89312 | 31258 ft | 463 kts | 110° |
| 2026-04-16 08:20 | 48.34269 | 12.98448 | 31258 ft | 463 kts | 110° |
| 2026-04-16 08:20 | 48.32140 | 13.07548 | 31254 ft | 462 kts | 110° |
| 2026-04-16 08:21 | 48.30013 | 13.16583 | 31262 ft | 462 kts | 111° |
| 2026-04-16 08:21 | 48.27880 | 13.25628 | 31264 ft | 461 kts | 111° |
| 2026-04-16 08:22 | 48.25739 | 13.34707 | 31260 ft | 461 kts | 111° |
| 2026-04-16 08:22 | 48.23604 | 13.43677 | 31261 ft | 461 kts | 111° |
| 2026-04-16 08:23 | 48.21048 | 13.52449 | 31256 ft | 458 kts | 123° |
| 2026-04-16 08:23 | 48.17623 | 13.60449 | 31258 ft | 458 kts | 124° |
| 2026-04-16 08:24 | 48.14180 | 13.68472 | 31257 ft | 458 kts | 124° |
| 2026-04-16 08:24 | 48.10740 | 13.76451 | 31255 ft | 458 kts | 124° |
| 2026-04-16 08:25 | 48.07306 | 13.84395 | 31263 ft | 458 kts | 124° |
| 2026-04-16 08:25 | 48.03855 | 13.92380 | 31263 ft | 458 kts | 124° |
| 2026-04-16 08:26 | 48.00392 | 14.00358 | 31261 ft | 457 kts | 125° |
| 2026-04-16 08:26 | 47.96926 | 14.08321 | 31264 ft | 457 kts | 125° |
| 2026-04-16 08:27 | 47.93474 | 14.16214 | 31271 ft | 457 kts | 124° |
| 2026-04-16 08:27 | 47.90011 | 14.24126 | 31272 ft | 457 kts | 124° |
| 2026-04-16 08:28 | 47.86535 | 14.32039 | 31273 ft | 456 kts | 125° |
| 2026-04-16 08:28 | 47.83054 | 14.39937 | 31273 ft | 456 kts | 125° |
| 2026-04-16 08:29 | 47.79595 | 14.47766 | 31270 ft | 456 kts | 124° |
| 2026-04-16 08:29 | 47.76119 | 14.55610 | 31272 ft | 456 kts | 125° |
| 2026-04-16 08:30 | 47.72630 | 14.63466 | 31272 ft | 455 kts | 125° |
| 2026-04-16 08:30 | 47.69138 | 14.71309 | 31260 ft | 455 kts | 124° |
| 2026-04-16 08:31 | 47.65672 | 14.79075 | 31264 ft | 454 kts | 124° |
| 2026-04-16 08:31 | 47.62191 | 14.86845 | 31267 ft | 453 kts | 124° |
| 2026-04-16 08:32 | 47.58697 | 14.94613 | 31261 ft | 453 kts | 124° |
| 2026-04-16 08:32 | 47.55200 | 15.02369 | 31253 ft | 452 kts | 124° |
| 2026-04-16 08:33 | 47.51701 | 15.10102 | 31250 ft | 452 kts | 124° |
| 2026-04-16 08:33 | 47.48236 | 15.17756 | 31237 ft | 452 kts | 124° |
| 2026-04-16 08:34 | 47.44731 | 15.25473 | 31235 ft | 452 kts | 124° |
| 2026-04-16 08:34 | 47.41223 | 15.33171 | 31230 ft | 452 kts | 124° |
| 2026-04-16 08:35 | 47.37736 | 15.40810 | 31226 ft | 451 kts | 124° |
| 2026-04-16 08:35 | 47.34238 | 15.48443 | 31230 ft | 450 kts | 124° |
| 2026-04-16 08:36 | 47.30725 | 15.56075 | 31235 ft | 450 kts | 124° |
| 2026-04-16 08:36 | 47.27208 | 15.63698 | 31233 ft | 450 kts | 124° |
| 2026-04-16 08:37 | 47.23686 | 15.71311 | 31231 ft | 450 kts | 124° |
| 2026-04-16 08:37 | 47.20196 | 15.78862 | 31233 ft | 449 kts | 124° |
| 2026-04-16 08:38 | 47.16666 | 15.86453 | 31229 ft | 450 kts | 124° |
| 2026-04-16 08:38 | 47.13143 | 15.94000 | 31227 ft | 449 kts | 124° |
| 2026-04-16 08:39 | 47.09610 | 16.01563 | 31229 ft | 449 kts | 124° |
| 2026-04-16 08:39 | 47.06107 | 16.09036 | 31234 ft | 449 kts | 124° |
| 2026-04-16 08:40 | 47.02565 | 16.16565 | 31230 ft | 448 kts | 124° |
| 2026-04-16 08:40 | 46.99151 | 16.24159 | 31227 ft | 448 kts | 118° |
| 2026-04-16 08:41 | 46.96160 | 16.32158 | 31228 ft | 448 kts | 118° |
| 2026-04-16 08:41 | 46.93185 | 16.40057 | 31226 ft | 448 kts | 118° |
| 2026-04-16 08:42 | 46.90168 | 16.48023 | 31225 ft | 448 kts | 118° |
| 2026-04-16 08:42 | 46.87157 | 16.55953 | 31228 ft | 448 kts | 118° |
| 2026-04-16 08:43 | 46.84135 | 16.63895 | 31227 ft | 447 kts | 118° |
| 2026-04-16 08:43 | 46.81140 | 16.71747 | 31224 ft | 447 kts | 118° |
| 2026-04-16 08:44 | 46.78106 | 16.79665 | 31223 ft | 447 kts | 119° |
| 2026-04-16 08:44 | 46.75079 | 16.87553 | 31218 ft | 447 kts | 118° |
| 2026-04-16 08:45 | 46.72056 | 16.95455 | 31227 ft | 446 kts | 118° |
| 2026-04-16 08:45 | 46.69023 | 17.03324 | 31227 ft | 446 kts | 118° |
| 2026-04-16 08:46 | 46.65997 | 17.11133 | 31220 ft | 446 kts | 119° |
| 2026-04-16 08:46 | 46.62955 | 17.18956 | 31217 ft | 446 kts | 119° |
| 2026-04-16 08:47 | 46.59900 | 17.26795 | 31213 ft | 446 kts | 119° |
| 2026-04-16 08:47 | 46.56878 | 17.34548 | 31215 ft | 445 kts | 119° |
| 2026-04-16 08:48 | 46.53824 | 17.42362 | 31215 ft | 445 kts | 119° |
| 2026-04-16 08:48 | 46.50773 | 17.50144 | 31214 ft | 445 kts | 119° |
| 2026-04-16 08:49 | 46.47706 | 17.57929 | 31214 ft | 444 kts | 119° |
| 2026-04-16 08:49 | 46.44644 | 17.65672 | 31211 ft | 444 kts | 119° |
| 2026-04-16 08:50 | 46.41595 | 17.73371 | 31210 ft | 443 kts | 119° |
| 2026-04-16 08:50 | 46.38535 | 17.81083 | 31212 ft | 443 kts | 119° |
| 2026-04-16 08:51 | 46.35465 | 17.88799 | 31211 ft | 442 kts | 119° |
| 2026-04-16 08:51 | 46.32400 | 17.96476 | 31213 ft | 441 kts | 119° |
| 2026-04-16 08:52 | 46.29343 | 18.04092 | 31211 ft | 440 kts | 119° |
| 2026-04-16 08:52 | 46.26266 | 18.11743 | 31213 ft | 440 kts | 119° |
| 2026-04-16 08:53 | 46.23192 | 18.19382 | 31204 ft | 440 kts | 119° |
| 2026-04-16 08:53 | 46.20132 | 18.26988 | 31215 ft | 440 kts | 119° |
| 2026-04-16 08:54 | 46.17072 | 18.34553 | 31210 ft | 439 kts | 119° |
| 2026-04-16 08:54 | 46.13998 | 18.42123 | 31208 ft | 439 kts | 120° |
| 2026-04-16 08:55 | 46.10907 | 18.49707 | 31204 ft | 439 kts | 120° |
| 2026-04-16 08:55 | 46.07824 | 18.57252 | 31207 ft | 438 kts | 119° |
| 2026-04-16 08:56 | 46.04750 | 18.64760 | 31209 ft | 438 kts | 120° |
| 2026-04-16 08:56 | 46.01667 | 18.72277 | 31216 ft | 437 kts | 120° |
| 2026-04-16 08:57 | 45.98578 | 18.79787 | 31213 ft | 436 kts | 120° |
| 2026-04-16 08:57 | 45.95498 | 18.87254 | 31208 ft | 436 kts | 120° |
| 2026-04-16 08:58 | 45.91638 | 18.93934 | 31210 ft | 437 kts | 139° |
| 2026-04-16 08:58 | 45.86667 | 18.98805 | 31204 ft | 438 kts | 147° |
| 2026-04-16 08:59 | 45.81525 | 19.03492 | 31198 ft | 438 kts | 147° |
| 2026-04-16 08:59 | 45.76411 | 19.08163 | 31192 ft | 438 kts | 147° |
| 2026-04-16 09:00 | 45.71275 | 19.12828 | 31202 ft | 437 kts | 147° |
| 2026-04-16 09:00 | 45.66191 | 19.17424 | 31213 ft | 436 kts | 147° |
| 2026-04-16 09:01 | 45.58451 | 19.24427 | 31189 ft | 447 kts | 147° |
| 2026-04-16 09:02 | 45.53175 | 19.29171 | 31189 ft | 449 kts | 147° |
| 2026-04-16 09:02 | 45.47944 | 19.33862 | 31190 ft | 448 kts | 146° |
| 2026-04-16 09:03 | 45.42740 | 19.38737 | 31188 ft | 447 kts | 139° |
| 2026-04-16 09:03 | 45.40534 | 19.41828 | 31190 ft | 445 kts | 128° |
| 2026-04-16 09:03 | 45.38800 | 19.45412 | 31189 ft | 443 kts | 118° |
| 2026-04-16 09:04 | 45.35709 | 19.52997 | 31153 ft | 443 kts | 119° |
| 2026-04-16 09:04 | 45.34170 | 19.56746 | 30186 ft | 438 kts | 119° |
| 2026-04-16 09:04 | 45.32644 | 19.60456 | 28866 ft | 437 kts | 120° |
| 2026-04-16 09:04 | 45.31118 | 19.64161 | 27666 ft | 433 kts | 120° |
| 2026-04-16 09:05 | 45.29623 | 19.67783 | 26583 ft | 429 kts | 120° |
| 2026-04-16 09:05 | 45.28114 | 19.71434 | 25486 ft | 426 kts | 121° |
| 2026-04-16 09:05 | 45.26614 | 19.75051 | 24475 ft | 424 kts | 121° |
| 2026-04-16 09:05 | 45.25123 | 19.78646 | 23472 ft | 421 kts | 121° |
| 2026-04-16 09:06 | 45.23646 | 19.82211 | 22467 ft | 417 kts | 121° |
| 2026-04-16 09:06 | 45.22187 | 19.85729 | 21565 ft | 410 kts | 121° |
| 2026-04-16 09:06 | 45.20762 | 19.89158 | 20719 ft | 404 kts | 121° |
| 2026-04-16 09:06 | 45.19348 | 19.92555 | 19893 ft | 396 kts | 121° |
| 2026-04-16 09:07 | 45.17976 | 19.95847 | 19078 ft | 390 kts | 121° |
| 2026-04-16 09:07 | 45.16620 | 19.99105 | 18483 ft | 377 kts | 121° |
| 2026-04-16 09:07 | 45.15322 | 20.02216 | 17983 ft | 361 kts | 121° |
| 2026-04-16 09:07 | 45.14069 | 20.05212 | 17531 ft | 346 kts | 120° |
| 2026-04-16 09:08 | 45.12869 | 20.08083 | 17083 ft | 334 kts | 120° |
| 2026-04-16 09:08 | 45.11685 | 20.10912 | 16544 ft | 336 kts | 120° |
| 2026-04-16 09:08 | 45.10492 | 20.13751 | 16040 ft | 337 kts | 120° |
| 2026-04-16 09:08 | 45.09292 | 20.16598 | 15599 ft | 336 kts | 120° |
| 2026-04-16 09:09 | 45.08112 | 20.19399 | 15165 ft | 336 kts | 120° |
| 2026-04-16 09:09 | 45.06920 | 20.22227 | 14727 ft | 335 kts | 120° |
| 2026-04-16 09:09 | 45.05729 | 20.25059 | 14277 ft | 334 kts | 120° |
| 2026-04-16 09:09 | 45.04542 | 20.27880 | 13811 ft | 333 kts | 120° |
| 2026-04-16 09:10 | 45.03359 | 20.30689 | 13352 ft | 332 kts | 120° |
| 2026-04-16 09:10 | 45.02182 | 20.33477 | 12911 ft | 329 kts | 120° |
| 2026-04-16 09:10 | 45.01018 | 20.36228 | 12471 ft | 327 kts | 120° |
| 2026-04-16 09:10 | 44.99854 | 20.38979 | 12039 ft | 326 kts | 120° |
| 2026-04-16 09:11 | 44.98709 | 20.41682 | 11616 ft | 324 kts | 120° |
| 2026-04-16 09:11 | 44.97556 | 20.44402 | 11186 ft | 323 kts | 120° |
| 2026-04-16 09:11 | 44.96412 | 20.47098 | 10762 ft | 321 kts | 120° |
| 2026-04-16 09:11 | 44.95265 | 20.49801 | 10327 ft | 321 kts | 120° |
| 2026-04-16 09:12 | 44.94134 | 20.52463 | 10179 ft | 311 kts | 120° |
| 2026-04-16 09:12 | 44.93043 | 20.55021 | 9959 ft | 297 kts | 121° |
| 2026-04-16 09:12 | 44.91996 | 20.57472 | 9470 ft | 291 kts | 121° |
| 2026-04-16 09:12 | 44.90945 | 20.59886 | 9183 ft | 290 kts | 125° |
| 2026-04-16 09:13 | 44.89533 | 20.61859 | 8814 ft | 290 kts | 146° |
| 2026-04-16 09:13 | 44.87707 | 20.63043 | 8425 ft | 290 kts | 166° |
| 2026-04-16 09:13 | 44.85726 | 20.63271 | 8107 ft | 287 kts | 186° |
| 2026-04-16 09:13 | 44.83753 | 20.62827 | 7730 ft | 287 kts | 189° |
| 2026-04-16 09:14 | 44.81797 | 20.62350 | 7148 ft | 284 kts | 189° |
| 2026-04-16 09:14 | 44.79856 | 20.61880 | 6529 ft | 282 kts | 189° |
| 2026-04-16 09:14 | 44.77927 | 20.61416 | 5918 ft | 280 kts | 189° |
| 2026-04-16 09:14 | 44.76011 | 20.60956 | 5336 ft | 278 kts | 189° |
| 2026-04-16 09:15 | 44.74172 | 20.60515 | 5086 ft | 264 kts | 189° |
| 2026-04-16 09:15 | 44.72499 | 20.59769 | 4954 ft | 245 kts | 213° |
| 2026-04-16 09:15 | 44.71385 | 20.58127 | 4832 ft | 227 kts | 244° |
| 2026-04-16 09:15 | 44.70993 | 20.56062 | 4442 ft | 219 kts | 274° |
| 2026-04-16 09:16 | 44.71353 | 20.54056 | 4080 ft | 209 kts | 299° |
| 2026-04-16 09:16 | 44.72086 | 20.52341 | 3546 ft | 203 kts | 303° |
| 2026-04-16 09:16 | 44.72786 | 20.50770 | 3244 ft | 184 kts | 304° |
| 2026-04-16 09:16 | 44.73427 | 20.49342 | 3118 ft | 162 kts | 303° |
| 2026-04-16 09:17 | 44.74000 | 20.48063 | 3046 ft | 151 kts | 304° |
| 2026-04-16 09:17 | 44.74541 | 20.46854 | 2821 ft | 146 kts | 304° |
| 2026-04-16 09:17 | 44.75078 | 20.45659 | 2630 ft | 145 kts | 303° |
| 2026-04-16 09:17 | 44.75611 | 20.44467 | 2421 ft | 143 kts | 303° |
| 2026-04-16 09:18 | 44.76140 | 20.43284 | 2218 ft | 143 kts | 303° |
| 2026-04-16 09:18 | 44.76669 | 20.42101 | 2031 ft | 143 kts | 303° |
| 2026-04-16 09:18 | 44.77192 | 20.40926 | 1838 ft | 142 kts | 303° |
| 2026-04-16 09:18 | 44.77716 | 20.39749 | 1643 ft | 142 kts | 303° |
| 2026-04-16 09:19 | 44.78239 | 20.38575 | 1452 ft | 141 kts | 303° |
| 2026-04-16 09:19 | 44.78752 | 20.37419 | 1269 ft | 141 kts | 303° |
| 2026-04-16 09:19 | 44.79269 | 20.36251 | 1071 ft | 140 kts | 303° |
| 2026-04-16 09:19 | 44.79787 | 20.35087 | 883 ft | 140 kts | 302° |
| 2026-04-16 09:20 | 44.80304 | 20.33926 | 664 ft | 140 kts | 302° |
| 2026-04-16 09:20 | 44.80811 | 20.32774 | 402 ft | 139 kts | 302° |
| 2026-04-16 09:20 | 44.81311 | 20.31651 | 308 ft | 121 kts | 303° |
| 2026-04-16 09:20 | 44.81674 | 20.30844 | 306 ft | 73 kts | 302° |
| 2026-04-16 09:21 | 44.81858 | 20.30438 | 309 ft | 30 kts | 302° |
| 2026-04-16 09:21 | 44.81968 | 20.30185 | 308 ft | 32 kts | 301° |
| 2026-04-16 09:21 | 44.82087 | 20.29914 | 307 ft | 33 kts | 302° |
| 2026-04-16 09:21 | 44.82151 | 20.29713 | 307 ft | 15 kts | 250° |
| 2026-04-16 09:22 | 44.82115 | 20.29584 | 308 ft | 16 kts | 278° |
| 2026-04-16 09:22 | 44.82093 | 20.29452 | 307 ft | 10 kts | 289° |
| 2026-04-16 09:22 | 44.82127 | 20.29375 | 307 ft | 7 kts | 302° |
| 2026-04-16 09:22 | 44.82157 | 20.29310 | 308 ft | 9 kts | 302° |
| 2026-04-16 09:23 | 44.82162 | 20.29297 | 308 ft | 2 kts | 302° |
| 2026-04-16 09:23 | 44.82176 | 20.29266 | 307 ft | 5 kts | 301° |
| 2026-04-16 09:23 | 44.82195 | 20.29210 | 308 ft | 7 kts | 271° |
| 2026-04-16 09:23 | 44.82155 | 20.29159 | 307 ft | 9 kts | 211° |
| 2026-04-16 09:24 | 44.82138 | 20.29144 | 308 ft | 0 kts | 212° |